createdAt,value
2022-11-25T00:01:46.715Z,16.4
2022-11-25T00:03:47.927Z,17.8
2022-11-25T00:05:49.153Z,28.6
2022-11-25T00:09:51.621Z,10.1
2022-11-25T00:11:52.875Z,23.2
2022-11-25T00:13:57.411Z,21.5
2022-11-25T00:17:59.865Z,19.4
2022-11-25T00:22:02.337Z,36.5
2022-11-25T00:24:03.577Z,10.7
2022-11-25T00:26:04.824Z,15.8
2022-11-25T00:28:09.356Z,14
2022-11-25T00:30:10.745Z,15.9
2022-11-25T00:32:11.906Z,29.9
2022-11-25T00:34:13.051Z,10.1
2022-11-25T00:40:16.747Z,8.3
2022-11-25T00:47:25.974Z,20
2022-11-25T00:49:27.223Z,12.1
2022-11-25T00:51:28.458Z,21.3
2022-11-25T00:53:29.726Z,18
2022-11-25T00:55:34.241Z,17.2
2022-11-25T00:57:35.439Z,26.4
2022-11-25T00:59:36.702Z,18.8
2022-11-25T01:01:38.015Z,22.6
2022-11-25T01:03:39.156Z,21.2
2022-11-25T01:07:41.718Z,13.6
2022-11-25T01:09:46.130Z,24
2022-11-25T01:11:47.353Z,14
2022-11-25T01:13:48.591Z,17.8
2022-11-25T01:15:49.815Z,22.5
2022-11-25T01:17:51.064Z,9.3
2022-11-25T01:19:52.314Z,16.1
2022-11-25T01:21:55.100Z,10.7
2022-11-25T01:23:59.569Z,26.7
2022-11-25T01:26:00.792Z,25.7
2022-11-25T01:28:02.012Z,14.9
2022-11-25T01:30:03.245Z,22.3
2022-11-25T01:32:04.595Z,20.9
2022-11-25T01:34:05.768Z,15.1
2022-11-25T01:36:07.014Z,20.7
2022-11-25T01:38:11.505Z,17.7
2022-11-25T01:40:12.733Z,28.6
2022-11-25T01:42:13.975Z,31.4
2022-11-25T01:45:17.451Z,28.7
2022-11-25T01:47:18.715Z,19.7
2022-11-25T01:55:26.882Z,22.6
2022-11-25T01:57:28.127Z,16
2022-11-25T01:59:29.348Z,35.6
2022-11-25T02:01:30.623Z,13.7
2022-11-25T02:07:37.564Z,25.3
2022-11-25T02:09:38.724Z,25.7
2022-11-25T02:11:39.955Z,13.2
2022-11-25T02:13:41.193Z,27.5
2022-11-25T02:15:42.420Z,20.6
2022-11-25T02:17:43.683Z,20.6
2022-11-25T02:19:48.196Z,24
2022-11-25T02:21:49.451Z,22.2
2022-11-25T02:23:50.676Z,33.1
2022-11-25T02:25:51.918Z,22.2
2022-11-25T02:27:53.186Z,13.7
2022-11-25T02:34:00.103Z,23.9
2022-11-25T02:39:04.804Z,23.7
2022-11-25T02:41:06.025Z,14.4
2022-11-25T02:43:07.226Z,23.7
2022-11-25T02:45:08.471Z,34.1
2022-11-25T02:47:12.967Z,11.2
2022-11-25T02:49:14.207Z,31.5
2022-11-25T02:51:15.460Z,15.4
2022-11-25T02:53:16.687Z,29.5
2022-11-25T02:55:17.925Z,20.7
2022-11-25T02:57:19.149Z,25.2
2022-11-25T03:05:27.373Z,30.9
2022-11-25T03:07:28.628Z,17.2
2022-11-25T03:09:29.820Z,31.1
2022-11-25T03:11:31.074Z,37
2022-11-25T03:13:32.286Z,41.4
2022-11-25T03:15:36.776Z,15.3
2022-11-25T03:17:38.011Z,20.9
2022-11-25T03:19:39.240Z,23
2022-11-25T03:21:40.474Z,32
2022-11-25T03:23:41.687Z,17.8
2022-11-25T03:25:42.930Z,26.6
2022-11-25T03:27:44.184Z,23.9
2022-11-25T03:29:48.690Z,20.3
2022-11-25T03:31:49.986Z,36.2
2022-11-25T03:33:51.159Z,20.3
2022-11-25T03:36:07.889Z,21.5
2022-11-25T03:38:09.133Z,22.3
2022-11-25T03:40:10.352Z,29.8
2022-11-25T03:42:14.849Z,13
2022-11-25T03:44:16.106Z,10.1
2022-11-25T03:46:17.406Z,19.6
2022-11-25T03:48:18.571Z,24.1
2022-11-25T03:50:19.800Z,37.4
2022-11-25T03:52:21.030Z,30
2022-11-25T03:54:22.291Z,13.6
2022-11-25T03:56:26.805Z,31.4
2022-11-25T03:58:28.072Z,16.1
2022-11-25T04:00:29.275Z,19.7
2022-11-25T04:02:30.589Z,19.6
2022-11-25T04:04:31.746Z,22.4
2022-11-25T04:06:32.985Z,19.7
2022-11-25T04:12:39.949Z,20.7
2022-11-25T04:14:41.192Z,22
2022-11-25T04:18:43.660Z,13.4
2022-11-25T04:20:44.921Z,23
2022-11-25T04:24:50.669Z,22.7
2022-11-25T04:26:51.900Z,17.4
2022-11-25T04:28:53.159Z,13.7
2022-11-25T04:31:56.610Z,31.2
2022-11-25T04:33:57.875Z,27.4
2022-11-25T04:35:59.113Z,27.6
2022-11-25T04:38:03.612Z,15
2022-11-25T04:40:04.961Z,23.6
2022-11-25T04:42:06.056Z,21.1
2022-11-25T04:44:07.299Z,61.1
2022-11-25T04:46:15.155Z,26.2
2022-11-25T04:48:09.776Z,57.4
2022-11-25T04:50:11.053Z,24.5
2022-11-25T04:54:17.628Z,20.6
2022-11-25T04:56:17.985Z,18.2
2022-11-25T04:58:19.245Z,12.7
2022-11-25T05:00:20.522Z,28.2
2022-11-25T05:04:22.967Z,30.9
2022-11-25T05:06:27.483Z,22.9
2022-11-25T05:08:28.685Z,22.8
2022-11-25T05:10:30.059Z,23.1
2022-11-25T05:12:31.167Z,12.6
2022-11-25T05:14:32.430Z,15.4
2022-11-25T05:16:33.740Z,21.9
2022-11-25T05:18:34.860Z,17.4
2022-11-25T05:20:39.374Z,13
2022-11-25T05:22:40.622Z,12.3
2022-11-25T05:24:41.873Z,17.7
2022-11-25T05:25:44.109Z,20.8
2022-11-25T05:27:45.346Z,11.3
2022-11-25T05:29:49.162Z,8.3
2022-11-25T05:31:47.828Z,16.5
2022-11-25T05:41:57.320Z,4.7
2022-11-25T05:43:58.551Z,23.4
2022-11-25T05:50:05.535Z,12.8
2022-11-25T05:52:06.761Z,15.1
2022-11-25T05:54:08.003Z,18.2
2022-11-25T05:56:09.244Z,9.2
2022-11-25T05:58:10.452Z,17.1
2022-11-25T06:00:11.706Z,10.5
2022-11-25T06:02:16.293Z,3.9
2022-11-25T06:04:17.462Z,12
2022-11-25T06:06:18.686Z,9.6
2022-11-25T06:08:19.925Z,17.8
2022-11-25T06:10:21.145Z,9.5
2022-11-25T06:16:28.177Z,2.5
2022-11-25T06:18:29.364Z,6.9
2022-11-25T06:20:30.620Z,8.7
2022-11-25T06:21:32.881Z,5.4
2022-11-25T06:23:34.110Z,7.2
2022-11-25T06:25:35.357Z,11.9
2022-11-25T06:28:04.537Z,10.5
2022-11-25T06:29:41.120Z,15.7
2022-11-25T06:31:42.406Z,9.1
2022-11-25T06:33:43.591Z,9
2022-11-25T06:35:44.834Z,12.5
2022-11-25T06:37:46.042Z,9.9
2022-11-25T06:39:47.295Z,6.1
2022-11-25T06:41:48.552Z,10.2
2022-11-25T06:43:53.061Z,8.4
2022-11-25T06:45:54.374Z,8.9
2022-11-25T06:47:55.551Z,21.1
2022-11-25T06:49:56.770Z,20.6
2022-11-25T06:51:58.000Z,11.2
2022-11-25T06:53:59.207Z,14.6
2022-11-25T06:56:00.477Z,15
2022-11-25T06:58:28.366Z,17.9
2022-11-25T07:00:06.215Z,9.2
2022-11-25T07:02:07.507Z,14.3
2022-11-25T07:04:08.658Z,11.9
2022-11-25T07:06:09.904Z,14.6
2022-11-25T07:08:11.179Z,4.8
2022-11-25T07:12:18.495Z,15.2
2022-11-25T07:14:19.678Z,19.3
2022-11-25T07:16:20.953Z,17.4
2022-11-25T07:18:49.249Z,13.8
2022-11-25T07:20:50.512Z,17.5
2022-11-25T07:22:51.767Z,14.3
2022-11-25T07:24:56.282Z,13.3
2022-11-25T07:26:57.501Z,22.4
2022-11-25T07:28:58.719Z,20.9
2022-11-25T07:33:01.243Z,17.9
2022-11-25T07:39:08.151Z,19.9
2022-11-25T07:41:09.358Z,17.8
2022-11-25T07:43:10.592Z,13.6
2022-11-25T07:45:11.830Z,14.6
2022-11-25T07:47:13.063Z,13.3
2022-11-25T07:49:14.329Z,9.3
2022-11-25T07:53:20.044Z,10.3
2022-11-25T07:57:22.516Z,10.8
2022-11-25T08:01:25.098Z,10.9
2022-11-25T08:03:26.212Z,16.7
2022-11-25T08:05:27.440Z,16.9
2022-11-25T08:07:36.272Z,16.6
2022-11-25T08:09:33.260Z,19.2
2022-11-25T08:11:34.353Z,5
2022-11-25T08:12:36.636Z,16.6
2022-11-25T08:14:37.859Z,6.1
2022-11-25T08:16:39.079Z,19.9
2022-11-25T08:18:40.308Z,20.3
2022-11-25T08:20:44.830Z,20.3
2022-11-25T08:22:46.075Z,10.3
2022-11-25T08:24:47.319Z,16.6
2022-11-25T08:26:48.540Z,12.4
2022-11-25T08:28:49.789Z,12.6
2022-11-25T08:30:51.075Z,17.6
2022-11-25T08:32:52.238Z,12.8
2022-11-25T08:34:56.759Z,10.8
2022-11-25T08:36:57.975Z,9.4
2022-11-25T08:43:01.662Z,7.3
2022-11-25T08:45:02.958Z,13.4
2022-11-25T08:47:04.156Z,10.5
2022-11-25T08:51:09.885Z,8.7
2022-11-25T08:53:11.134Z,11.4
2022-11-25T08:55:12.357Z,14.2
2022-11-25T08:57:13.593Z,12.1
2022-11-25T08:59:14.815Z,11.3
2022-11-25T09:03:20.628Z,22.5
2022-11-25T09:05:21.803Z,6.6
2022-11-25T09:07:29.130Z,19.5
2022-11-25T09:08:25.282Z,8.6
2022-11-25T09:10:26.524Z,17.7
2022-11-25T09:12:27.775Z,13.9
2022-11-25T09:14:29.074Z,8.7
2022-11-25T09:16:33.609Z,8.9
2022-11-25T09:18:34.772Z,6.2
2022-11-25T09:20:35.995Z,17
2022-11-25T09:22:37.234Z,14.5
2022-11-25T09:26:39.703Z,14.8
2022-11-25T09:28:40.967Z,16.1
2022-11-25T09:30:45.470Z,12.5
2022-11-25T09:32:46.691Z,10
2022-11-25T09:38:50.397Z,5.6
2022-11-25T09:40:51.675Z,15.3
2022-11-25T09:42:52.912Z,16.9
2022-11-25T09:44:57.446Z,9
2022-11-25T09:48:59.911Z,4.8
2022-11-25T09:51:01.143Z,14.5
2022-11-25T09:53:02.392Z,13.6
2022-11-25T09:55:03.670Z,13.7
2022-11-25T09:57:04.888Z,4.4
2022-11-25T09:59:09.442Z,9.3
2022-11-25T10:01:10.673Z,24
2022-11-25T10:03:11.975Z,9.6
2022-11-25T10:10:17.949Z,13.4
2022-11-25T10:18:26.248Z,17.2
2022-11-25T10:20:27.518Z,17.7
2022-11-25T10:22:28.748Z,13.2
2022-11-25T10:24:29.999Z,31.4
2022-11-25T10:26:34.495Z,6.6
2022-11-25T10:32:38.197Z,16.8
2022-11-25T10:34:39.647Z,17.6
2022-11-25T10:36:40.679Z,13.9
2022-11-25T10:38:41.979Z,11.4
2022-11-25T10:40:46.466Z,16.3
2022-11-25T10:42:47.726Z,23.6
2022-11-25T10:44:48.953Z,15.2
2022-11-25T10:47:13.107Z,7
2022-11-25T10:48:51.664Z,17.6
2022-11-25T10:50:52.712Z,19.4
2022-11-25T10:52:53.928Z,17.5
2022-11-25T10:54:58.464Z,19.8
2022-11-25T10:56:59.709Z,12.6
2022-11-25T10:59:00.945Z,13.5
2022-11-25T11:01:29.325Z,9.5
2022-11-25T11:03:30.553Z,19.7
2022-11-25T11:05:31.732Z,16.8
2022-11-25T11:07:36.513Z,19.3
2022-11-25T11:09:37.499Z,14.2
2022-11-25T11:11:38.742Z,7.1
2022-11-25T11:13:40.002Z,17.7
2022-11-25T11:15:41.497Z,15.9
2022-11-25T11:17:42.491Z,24.9
2022-11-25T11:19:43.742Z,20.8
2022-11-25T11:21:48.287Z,10.5
2022-11-25T11:23:49.558Z,13.7
2022-11-25T11:25:50.785Z,21.2
2022-11-25T11:27:52.024Z,13.5
2022-11-25T11:31:54.503Z,21.1
2022-11-25T11:33:55.770Z,20
2022-11-25T11:36:00.287Z,28.5
2022-11-25T11:38:01.536Z,17.6
2022-11-25T11:46:06.537Z,24.6
2022-11-25T11:48:07.795Z,16.9
2022-11-25T11:50:12.324Z,12.9
2022-11-25T11:52:13.595Z,19.2
2022-11-25T11:55:17.100Z,15.4
2022-11-25T11:57:18.354Z,14.7
2022-11-25T11:59:19.636Z,13.9
2022-11-25T12:01:20.861Z,15.1
2022-11-25T12:03:25.492Z,16.1
2022-11-25T12:05:26.636Z,20.7
2022-11-25T12:07:27.966Z,16.5
2022-11-25T12:09:29.146Z,13.8
2022-11-25T12:11:30.360Z,19.1
2022-11-25T12:13:31.653Z,29.3
2022-11-25T12:15:32.881Z,15
2022-11-25T12:17:37.396Z,21.8
2022-11-25T12:19:38.636Z,18.3
2022-11-25T12:21:42.119Z,10.8
2022-11-25T12:23:41.143Z,26.3
2022-11-25T12:25:42.404Z,18.3
2022-11-25T12:27:43.661Z,11.5
2022-11-25T12:29:44.900Z,21.1
2022-11-25T12:31:49.485Z,38.8
2022-11-25T12:33:50.686Z,11.9
2022-11-25T12:35:51.912Z,13.1
2022-11-25T12:37:53.211Z,17.8
2022-11-25T12:39:54.455Z,20.5
2022-11-25T12:41:55.708Z,19
2022-11-25T12:43:56.937Z,12.5
2022-11-25T12:46:01.465Z,26.1
2022-11-25T12:48:02.715Z,12.9
2022-11-25T12:50:03.976Z,23.2
2022-11-25T12:51:06.271Z,25.4
2022-11-25T12:53:07.480Z,19
2022-11-25T12:55:08.921Z,12.3
2022-11-25T12:57:09.981Z,14.8
2022-11-25T12:59:14.533Z,17
2022-11-25T13:01:17.367Z,18.7
2022-11-25T13:03:18.545Z,12.9
2022-11-25T13:05:39.660Z,14.1
2022-11-25T13:07:21.092Z,31.8
2022-11-25T13:09:22.308Z,18.8
2022-11-25T13:11:24.002Z,22.1
2022-11-25T13:13:28.454Z,17.7
2022-11-25T13:25:35.638Z,21.2
2022-11-25T13:27:40.219Z,25.6
2022-11-25T13:29:41.420Z,35.8
2022-11-25T13:31:42.704Z,36.5
2022-11-25T13:33:43.914Z,29.2
2022-11-25T13:35:45.158Z,34.7
2022-11-25T13:37:46.401Z,24.8
2022-11-25T13:39:47.645Z,11.4
2022-11-25T13:41:52.179Z,20.1
2022-11-25T13:43:53.440Z,27.7
2022-11-25T13:46:56.970Z,28.8
2022-11-25T13:51:11.209Z,31.2
2022-11-25T13:53:00.739Z,29.1
2022-11-25T13:57:06.523Z,10.4
2022-11-25T13:59:07.772Z,13
2022-11-25T14:01:09.026Z,22
2022-11-25T14:03:10.351Z,15
2022-11-25T14:05:11.559Z,14.6
2022-11-25T14:07:17.125Z,22.9
2022-11-25T14:09:17.358Z,13.2
2022-11-25T14:11:18.618Z,13.1
2022-11-25T14:13:19.860Z,12.6
2022-11-25T14:15:21.087Z,20.9
2022-11-25T14:21:24.821Z,29.6
2022-11-25T14:25:30.608Z,33.9
2022-11-25T14:27:31.877Z,48.2
2022-11-25T14:29:33.112Z,24
2022-11-25T14:31:34.403Z,24.3
2022-11-25T14:33:35.621Z,19.7
2022-11-25T14:35:41.680Z,19.3
2022-11-25T14:37:41.380Z,20.4
2022-11-25T14:39:42.630Z,27
2022-11-25T14:41:44.013Z,31.3
2022-11-25T14:44:12.195Z,17.8
2022-11-25T14:46:13.501Z,34.5
2022-11-25T14:48:14.663Z,26.7
2022-11-25T14:50:34.363Z,26.4
2022-11-25T14:52:20.447Z,14.6
2022-11-25T14:54:21.687Z,13.9
2022-11-25T14:56:22.900Z,20
2022-11-25T14:58:24.157Z,22.1
2022-11-25T15:00:25.451Z,17.2
2022-11-25T15:02:26.731Z,10.9
2022-11-25T15:04:31.237Z,9.5
2022-11-25T15:06:32.481Z,20.6
2022-11-25T15:08:33.682Z,10.6
2022-11-25T15:10:34.943Z,36.8
2022-11-25T15:12:40.579Z,12.8
2022-11-25T15:14:37.451Z,28.2
2022-11-25T15:16:38.756Z,28.4
2022-11-25T15:18:43.199Z,19.4
2022-11-25T15:20:44.433Z,16
2022-11-25T15:22:45.715Z,17.9
2022-11-25T15:24:51.621Z,24.1
2022-11-25T15:26:48.182Z,20.4
2022-11-25T15:28:49.429Z,21.5
2022-11-25T15:30:50.696Z,40.2
2022-11-25T15:32:55.152Z,28.1
2022-11-25T15:34:56.399Z,32.1
2022-11-25T15:36:57.665Z,16
2022-11-25T15:38:00.024Z,17.1
2022-11-25T15:40:01.169Z,21.7
2022-11-25T15:42:02.406Z,30.9
2022-11-25T15:44:03.614Z,22.6
2022-11-25T15:46:08.151Z,32.2
2022-11-25T15:48:09.390Z,28.5
2022-11-25T15:50:10.620Z,34.2
2022-11-25T15:52:11.890Z,19.4
2022-11-25T15:54:13.110Z,29.1
2022-11-25T15:56:14.335Z,34.5
2022-11-25T16:00:20.115Z,20.3
2022-11-25T16:02:21.380Z,30
2022-11-25T16:04:22.578Z,32.4
2022-11-25T16:06:23.809Z,27.2
2022-11-25T16:10:26.300Z,24
2022-11-25T16:12:27.533Z,28.1
2022-11-25T16:20:35.756Z,30.9
2022-11-25T16:22:36.997Z,30.4
2022-11-25T16:24:38.266Z,24.1
2022-11-25T16:26:39.551Z,21.6
2022-11-25T16:30:45.236Z,31.4
2022-11-25T16:32:46.499Z,22
2022-11-25T16:33:48.741Z,32.3
2022-11-25T16:35:49.998Z,26.2
2022-11-25T16:39:52.482Z,34.2
2022-11-25T16:41:56.961Z,29.2
2022-11-25T16:45:59.610Z,40.2
2022-11-25T16:48:00.674Z,36.3
2022-11-25T16:56:08.904Z,57.7
2022-11-25T16:58:10.149Z,57.9
2022-11-25T17:00:11.421Z,63.2
2022-11-25T17:02:12.873Z,45.7
2022-11-25T17:08:16.403Z,37.1
2022-11-25T17:10:20.862Z,53.3
2022-11-25T17:12:22.078Z,35.5
2022-11-25T17:14:23.427Z,27.4
2022-11-25T17:16:24.687Z,45.8
2022-11-25T17:18:25.793Z,31.2
2022-11-25T17:20:27.171Z,37.5
2022-11-25T17:22:28.299Z,68.5
2022-11-25T17:24:32.776Z,35.8
2022-11-25T17:26:34.025Z,34.6
2022-11-25T17:28:35.290Z,61.7
2022-11-25T17:29:37.528Z,46
2022-11-25T17:31:38.900Z,49.5
2022-11-25T17:33:40.001Z,47.4
2022-11-25T17:35:41.234Z,41.6
2022-11-25T17:37:45.730Z,52.9
2022-11-25T17:39:46.976Z,47.4
2022-11-25T17:41:48.194Z,42.1
2022-11-25T17:43:49.440Z,87.5
2022-11-25T17:45:50.863Z,254.3
2022-11-25T17:47:51.909Z,152.6
2022-11-25T17:49:53.172Z,35.9
2022-11-25T17:51:57.632Z,95.2
2022-11-25T17:53:58.857Z,50.1
2022-11-25T17:56:00.243Z,46.1
2022-11-25T17:58:01.311Z,45.4
2022-11-25T18:00:02.542Z,61.8
2022-11-25T18:02:03.821Z,264.1
2022-11-25T18:08:10.727Z,55.9
2022-11-25T18:10:11.963Z,209.4
2022-11-25T18:12:13.209Z,171.6
2022-11-25T18:14:14.431Z,78.7
2022-11-25T18:16:15.778Z,81
2022-11-25T18:18:16.855Z,85.8
2022-11-25T18:26:52.151Z,120.4
2022-11-25T18:28:53.396Z,75.3
2022-11-25T18:30:54.743Z,55.8
2022-11-25T18:32:59.484Z,65.6
2022-11-25T18:35:00.715Z,129.2
2022-11-25T18:37:01.947Z,67
2022-11-25T18:49:12.539Z,90.8
2022-11-25T18:53:16.486Z,85.8
2022-11-25T18:55:17.753Z,86.9
2022-11-25T18:57:18.926Z,79.1
2022-11-25T18:59:20.171Z,71
2022-11-25T19:01:24.683Z,65.1
2022-11-25T19:03:25.869Z,109
2022-11-25T19:05:27.087Z,75.4
2022-11-25T19:07:28.436Z,57.8
2022-11-25T19:09:29.526Z,68.5
2022-11-25T19:11:30.742Z,61.2
2022-11-25T19:13:31.970Z,56.6
2022-11-25T19:15:36.876Z,60.2
2022-11-25T19:17:38.107Z,58.5
2022-11-25T19:19:39.311Z,59.4
2022-11-25T19:20:41.542Z,66
2022-11-25T19:22:42.762Z,53.3
2022-11-25T19:24:44.007Z,68.9
2022-11-25T19:26:45.231Z,82.1
2022-11-25T19:28:49.730Z,79.5
2022-11-25T19:30:50.909Z,52.6
2022-11-25T19:32:52.141Z,75.3
2022-11-25T19:38:55.798Z,73.3
2022-11-25T19:43:01.488Z,82.6
2022-11-25T19:53:07.574Z,70.4
2022-11-25T19:55:08.784Z,52.9
2022-11-25T20:03:16.956Z,54.7
2022-11-25T20:07:19.455Z,61.1
2022-11-25T20:09:20.614Z,65.8
2022-11-25T20:11:25.079Z,61.3
2022-11-25T20:13:26.423Z,44.9
2022-11-25T20:15:27.506Z,57
2022-11-25T20:16:29.773Z,59.6
2022-11-25T20:18:30.943Z,33.4
2022-11-25T20:20:32.174Z,65.6
2022-11-25T20:22:33.411Z,52.9
2022-11-25T20:24:38.138Z,62.1
2022-11-25T20:26:39.086Z,50.6
2022-11-25T20:28:40.314Z,61.5
2022-11-25T20:30:41.533Z,45.5
2022-11-25T20:32:42.768Z,59.9
2022-11-25T20:34:44.231Z,42.8
2022-11-25T20:36:45.192Z,48.2
2022-11-25T20:38:49.683Z,62.4
2022-11-25T20:40:50.859Z,46.8
2022-11-25T20:42:52.104Z,65
2022-11-25T20:44:57.261Z,53.6
2022-11-25T20:46:54.529Z,43
2022-11-25T20:48:55.854Z,43.8
2022-11-25T20:50:56.972Z,54.5
2022-11-25T20:53:01.431Z,60.6
2022-11-25T20:55:02.658Z,58.2
2022-11-25T20:57:03.891Z,44.4
2022-11-25T20:59:05.132Z,37.4
2022-11-25T21:01:06.395Z,58.3
2022-11-25T21:03:07.572Z,47.8
2022-11-25T21:05:08.787Z,50.6
2022-11-25T21:07:13.300Z,67.6
2022-11-25T21:09:14.488Z,54
2022-11-25T21:11:15.688Z,57.8
2022-11-25T21:12:19.737Z,67.9
2022-11-25T21:14:19.121Z,51.6
2022-11-25T21:16:20.419Z,55.7
2022-11-25T21:18:21.574Z,52
2022-11-25T21:20:26.045Z,47.1
2022-11-25T21:22:27.319Z,58.8
2022-11-25T21:24:28.461Z,60.8
2022-11-25T21:28:30.916Z,64.3
2022-11-25T21:30:32.140Z,61.4
2022-11-25T21:32:33.344Z,56.7
2022-11-25T21:34:37.929Z,62.9
2022-11-25T21:36:39.018Z,59.9
2022-11-25T21:38:40.219Z,50.6
2022-11-25T21:40:41.439Z,65.6
2022-11-25T21:42:42.657Z,80.9
2022-11-25T21:44:43.878Z,59.3
2022-11-25T21:46:45.182Z,62.8
2022-11-25T21:48:49.577Z,62.9
2022-11-25T21:50:50.783Z,53.3
2022-11-25T21:52:51.999Z,55.8
2022-11-25T21:54:53.207Z,66.1
2022-11-25T21:56:54.420Z,46.1
2022-11-25T21:58:55.628Z,61.9
2022-11-25T22:05:02.551Z,65.5
2022-11-25T22:07:03.744Z,40
2022-11-25T22:09:32.163Z,57.9
2022-11-25T22:11:33.400Z,53.8
2022-11-25T22:13:34.602Z,58.6
2022-11-25T22:15:39.085Z,66.5
2022-11-25T22:17:40.292Z,39.5
2022-11-25T22:19:41.536Z,48.7
2022-11-25T22:21:42.735Z,73.9
2022-11-25T22:23:44.090Z,58.2
2022-11-25T22:25:45.168Z,51.3
2022-11-25T22:27:46.367Z,72.5
2022-11-25T22:29:50.833Z,60.5
2022-11-25T22:31:52.078Z,58.2
2022-11-25T22:33:53.354Z,55.1
2022-11-25T22:35:54.447Z,58.7
2022-11-25T22:37:55.778Z,69.9
2022-11-25T22:39:56.869Z,50.6
2022-11-25T22:41:58.058Z,58
2022-11-25T22:44:02.540Z,72.2
2022-11-25T22:46:03.780Z,67.6
2022-11-25T22:48:04.988Z,65.1
2022-11-25T22:50:06.219Z,49.5
2022-11-25T22:52:07.446Z,50.1
2022-11-25T22:58:14.367Z,48.4
2022-11-25T23:02:16.803Z,63.3
2022-11-25T23:03:18.956Z,67.9
2022-11-25T23:05:20.174Z,73.3
2022-11-25T23:07:21.387Z,55.1
2022-11-25T23:09:22.548Z,65.2
2022-11-25T23:11:27.009Z,50.3
2022-11-25T23:13:28.215Z,49.5
2022-11-25T23:15:29.405Z,67.3
2022-11-25T23:17:30.616Z,65.9
2022-11-25T23:19:31.862Z,57.8
2022-11-25T23:21:33.070Z,60.3
2022-11-25T23:23:34.251Z,56.2
2022-11-25T23:25:38.714Z,48.3
2022-11-25T23:27:39.910Z,47.9
2022-11-25T23:29:41.128Z,43.4
2022-11-25T23:31:42.386Z,44.7
2022-11-25T23:33:43.546Z,48.7
2022-11-25T23:35:44.743Z,51.8
2022-11-25T23:37:45.943Z,43.4
2022-11-25T23:39:50.410Z,54.5
2022-11-25T23:41:51.608Z,50
2022-11-25T23:43:52.796Z,42.1
2022-11-25T23:45:54.113Z,61
2022-11-25T23:47:55.215Z,56.1
2022-11-25T23:49:56.436Z,50.7
2022-11-25T23:51:57.602Z,63.7
2022-11-25T23:54:02.096Z,51.1
2022-11-25T23:56:03.267Z,53.6
2022-11-25T23:58:04.469Z,53.5
2022-11-25T23:59:06.719Z,71.4
